Time;durP1;ratioP1;P1;durP2;ratioP2;P2;SDS_P1;SDS_P2;PMS_P1;PMS_P2;Temp;Humidity;BMP_temperature;BMP_pressure;BME280_temperature;BME280_humidity;BME280_pressure;Samples;Min_cycle;Max_cycle;Signal;HPM_P1;HPM_P2
2022/03/16 00:00:46;;;;;;;83.80;39.00;;;6.00;99.90;;;;;;4993496;28;20046;-71
2022/03/16 00:03:12;;;;;;;77.72;39.10;;;5.80;99.90;;;;;;4992148;28;20152;-71
2022/03/16 00:05:38;;;;;;;85.10;40.63;;;6.20;99.90;;;;;;4992210;28;20042;-71
2022/03/16 00:08:03;;;;;;;75.50;39.15;;;5.90;99.90;;;;;;4993212;28;20046;-71
2022/03/16 00:10:29;;;;;;;81.35;39.35;;;6.00;99.90;;;;;;4993072;28;20150;-70
2022/03/16 00:12:55;;;;;;;84.55;39.53;;;6.10;99.90;;;;;;4993111;28;20054;-70
2022/03/16 00:15:20;;;;;;;88.15;41.85;;;6.30;99.90;;;;;;5008416;28;20054;-71
2022/03/16 00:17:46;;;;;;;80.85;40.28;;;6.00;99.90;;;;;;4992076;28;20054;-70
2022/03/16 00:20:12;;;;;;;92.05;42.25;;;6.00;99.90;;;;;;4993080;28;20352;-70
2022/03/16 00:22:38;;;;;;;95.63;41.03;;;5.90;99.90;;;;;;4991860;28;20487;-71
2022/03/16 00:25:05;;;;;;;84.68;41.08;;;6.00;99.90;;;;;;4991837;28;20063;-71
2022/03/16 00:27:31;;;;;;;84.25;41.08;;;5.90;99.90;;;;;;4993174;28;20046;-71
2022/03/16 00:29:57;;;;;;;82.25;40.35;;;5.80;99.90;;;;;;4993031;28;20105;-71
2022/03/16 00:32:22;;;;;;;80.88;40.75;;;5.70;99.90;;;;;;4992954;28;20061;-70
2022/03/16 00:34:48;;;;;;;80.95;40.78;;;5.90;99.90;;;;;;4991911;28;20062;-71
2022/03/16 00:37:14;;;;;;;87.18;40.95;;;5.90;99.90;;;;;;4992813;28;20049;-71
2022/03/16 00:39:39;;;;;;;94.40;41.40;;;5.70;99.90;;;;;;4991805;28;20089;-70
2022/03/16 00:42:05;;;;;;;87.32;42.78;;;5.60;99.90;;;;;;4992785;28;20050;-70
2022/03/16 00:44:35;;;;;;;90.47;41.10;;;5.60;99.90;;;;;;4991998;28;20487;-70
2022/03/16 00:47:02;;;;;;;84.97;40.28;;;5.80;99.90;;;;;;4992959;28;20062;-70
2022/03/16 00:49:28;;;;;;;88.47;40.65;;;;;;;;;;4991875;28;20057;-71
2022/03/16 00:51:53;;;;;;;81.50;39.47;;;5.50;99.90;;;;;;4992705;28;20130;-70
2022/03/16 00:54:19;;;;;;;83.00;39.78;;;5.70;99.90;;;;;;4991642;28;20542;-70
2022/03/16 00:56:45;;;;;;;77.50;39.45;;;5.60;99.90;;;;;;4992676;28;20108;-70
2022/03/16 00:59:10;;;;;;;84.97;39.05;;;5.40;99.90;;;;;;4992892;28;20054;-70
2022/03/16 01:01:36;;;;;;;77.10;39.28;;;5.50;99.90;;;;;;4991864;28;20069;-70
2022/03/16 01:04:02;;;;;;;94.97;40.97;;;5.60;99.90;;;;;;4991693;28;20077;-71
2022/03/16 01:06:28;;;;;;;94.90;41.85;;;5.50;99.90;;;;;;4992647;28;20402;-70
2022/03/16 01:08:53;;;;;;;78.28;37.35;;;5.20;99.90;;;;;;4991443;28;20046;-70
2022/03/16 01:11:19;;;;;;;82.75;38.88;;;4.80;99.90;;;;;;4991579;28;20057;-70
2022/03/16 01:13:45;;;;;;;83.72;40.67;;;5.30;99.90;;;;;;4992594;28;20049;-70
2022/03/16 01:16:12;;;;;;;72.15;36.55;;;5.10;99.90;;;;;;4992542;28;20051;-70
2022/03/16 01:18:38;;;;;;;59.10;31.95;;;5.00;99.90;;;;;;4992506;28;20380;-70
2022/03/16 01:21:05;;;;;;;68.03;34.10;;;4.80;99.90;;;;;;4992521;28;20041;-70
2022/03/16 01:23:31;;;;;;;78.25;35.92;;;4.90;99.90;;;;;;4992451;28;20134;-70
2022/03/16 01:25:56;;;;;;;68.65;34.13;;;4.60;99.90;;;;;;4992585;28;20133;-70
2022/03/16 01:28:22;;;;;;;65.80;35.33;;;4.80;99.90;;;;;;4992637;28;20039;-70
2022/03/16 01:30:48;;;;;;;65.30;32.60;;;4.60;99.90;;;;;;4991126;28;20045;-70
2022/03/16 01:33:16;;;;;;;67.82;33.28;;;4.50;99.90;;;;;;4992616;28;20057;-70
2022/03/16 01:35:42;;;;;;;66.05;34.33;;;4.50;99.90;;;;;;4992336;28;20061;-70
2022/03/16 01:38:07;;;;;;;65.68;34.78;;;4.30;99.90;;;;;;4991007;28;20125;-70
2022/03/16 01:40:33;;;;;;;76.22;37.00;;;4.50;99.90;;;;;;4992619;28;20125;-70
2022/03/16 01:42:59;;;;;;;86.85;38.28;;;4.40;99.90;;;;;;4991486;28;20536;-70
2022/03/16 01:45:24;;;;;;;74.28;36.25;;;4.40;99.90;;;;;;4991446;28;20042;-70
2022/03/16 01:47:50;;;;;;;80.65;36.17;;;;;;;;;;4991242;28;20058;-70
2022/03/16 01:50:16;;;;;;;79.18;37.42;;;4.80;99.90;;;;;;4992231;28;20474;-70
2022/03/16 01:52:43;;;;;;;80.35;40.25;;;4.50;99.90;;;;;;4992139;28;20046;-70
2022/03/16 01:55:09;;;;;;;66.15;34.55;;;4.40;99.90;;;;;;4994526;28;20055;-70
2022/03/16 01:57:39;;;;;;;90.20;38.22;;;4.30;99.90;;;;;;4994506;28;20499;-70
2022/03/16 02:00:06;;;;;;;94.50;42.10;;;4.30;99.90;;;;;;4995818;28;20372;-70
2022/03/16 02:02:33;;;;;;;82.85;39.47;;;4.10;99.90;;;;;;4995601;28;20054;-70
2022/03/16 02:04:59;;;;;;;99.70;43.78;;;;;;;;;;4994418;28;20061;-70
2022/03/16 02:07:25;;;;;;;112.45;46.80;;;4.20;99.90;;;;;;4994286;28;20046;-71
2022/03/16 02:09:53;;;;;;;94.65;43.80;;;4.10;99.90;;;;;;4994467;28;20487;-70
2022/03/16 02:12:19;;;;;;;90.60;43.25;;;4.00;99.90;;;;;;4995478;28;20053;-70
2022/03/16 02:14:45;;;;;;;86.90;42.63;;;;;;;;;;4995420;28;20042;-71
2022/03/16 02:17:10;;;;;;;102.18;47.50;;;4.20;99.90;;;;;;4994263;28;20051;-70
2022/03/16 02:19:36;;;;;;;93.60;42.35;;;4.60;99.90;;;;;;4994177;28;20057;-71
2022/03/16 02:22:04;;;;;;;101.22;43.63;;;4.10;99.90;;;;;;4995148;28;20132;-70
2022/03/16 02:24:29;;;;;;;91.28;42.08;;;4.00;99.90;;;;;;5010498;28;20108;-70
2022/03/16 02:26:56;;;;;;;99.00;43.75;;;;;;;;;;4995245;28;20054;-70
2022/03/16 02:29:22;;;;;;;101.18;43.25;;;4.10;99.90;;;;;;4995163;28;20054;-70
2022/03/16 02:31:48;;;;;;;98.25;43.63;;;4.20;99.90;;;;;;4995036;28;20521;-70
2022/03/16 02:34:14;;;;;;;109.07;44.03;;;;;;;;;;4995023;28;20085;-70
2022/03/16 02:36:40;;;;;;;98.40;45.30;;;4.10;99.90;;;;;;4994956;28;20085;-70
2022/03/16 02:39:06;;;;;;;94.68;43.80;;;4.40;99.90;;;;;;4995145;28;20086;-70
2022/03/16 02:41:31;;;;;;;109.72;46.50;;;4.40;99.90;;;;;;4994966;28;20050;-70
2022/03/16 02:43:57;;;;;;;101.65;45.80;;;4.10;99.90;;;;;;4994788;28;20509;-71
2022/03/16 02:46:23;;;;;;;119.00;50.30;;;4.40;99.90;;;;;;4994882;28;20081;-70
2022/03/16 02:48:49;;;;;;;111.57;48.78;;;4.30;99.90;;;;;;4993486;28;20138;-70
2022/03/16 02:51:15;;;;;;;128.45;50.17;;;;;;;;;;4994611;28;20065;-70
2022/03/16 02:53:41;;;;;;;120.80;51.33;;;4.50;99.90;;;;;;4994627;28;20517;-70
2022/03/16 02:56:07;;;;;;;123.88;51.42;;;4.00;99.90;;;;;;4993431;28;20057;-70
2022/03/16 02:58:33;;;;;;;139.68;53.85;;;4.30;99.90;;;;;;4993346;28;20479;-70
2022/03/16 03:00:59;;;;;;;135.10;52.90;;;;;;;;;;4994515;28;20108;-70
2022/03/16 03:03:25;;;;;;;137.15;54.92;;;4.50;99.90;;;;;;4994402;28;20151;-70
2022/03/16 03:05:54;;;;;;;129.95;53.63;;;4.60;99.90;;;;;;4994379;28;20121;-71
2022/03/16 03:08:20;;;;;;;129.98;56.58;;;4.30;99.90;;;;;;4994546;28;20103;-70
2022/03/16 03:10:45;;;;;;;157.18;59.05;;;4.50;99.90;;;;;;4994263;28;20039;-70
2022/03/16 03:13:14;;;;;;;143.05;56.70;;;4.50;99.90;;;;;;4993175;28;20053;-70
2022/03/16 03:15:41;;;;;;;149.57;55.45;;;4.60;99.90;;;;;;4994146;28;20057;-70
2022/03/16 03:18:07;;;;;;;138.00;55.50;;;;;;;;;;4994099;28;20054;-70
2022/03/16 03:20:33;;;;;;;129.27;54.42;;;4.50;99.90;;;;;;4977101;28;20104;-70
2022/03/16 03:22:59;;;;;;;142.35;56.05;;;;;;;;;;4994219;28;20050;-70
2022/03/16 03:25:25;;;;;;;130.43;52.63;;;4.40;99.90;;;;;;4992984;28;20129;-70
2022/03/16 03:27:51;;;;;;;140.18;54.15;;;;;;;;;;4993038;28;20085;-70
2022/03/16 03:30:16;;;;;;;134.75;54.90;;;4.30;99.90;;;;;;4993964;28;20053;-70
2022/03/16 03:32:42;;;;;;;117.90;50.72;;;;;;;;;;4993631;28;20161;-70
2022/03/16 03:35:08;;;;;;;150.75;58.13;;;4.30;99.90;;;;;;4993091;28;20065;-70
2022/03/16 03:37:36;;;;;;;151.57;58.72;;;4.40;99.90;;;;;;4992664;28;20046;-70
2022/03/16 03:40:02;;;;;;;135.57;54.05;;;4.30;99.90;;;;;;4993812;28;20043;-70
2022/03/16 03:42:28;;;;;;;146.48;57.60;;;;;;;;;;4993781;28;20050;-71
2022/03/16 03:44:54;;;;;;;163.88;59.85;;;4.20;99.90;;;;;;4992422;28;20099;-70
2022/03/16 03:47:20;;;;;;;177.10;59.10;;;4.40;99.90;;;;;;4992403;28;20045;-71
2022/03/16 03:49:46;;;;;;;189.23;61.60;;;;;;;;;;4992303;28;20053;-70
2022/03/16 03:52:11;;;;;;;155.27;55.33;;;4.30;99.90;;;;;;4993629;28;20328;-70
2022/03/16 03:54:37;;;;;;;140.52;53.75;;;4.20;99.90;;;;;;4993444;28;20050;-70
2022/03/16 03:57:04;;;;;;;157.65;56.72;;;;;;;;;;4993577;28;20487;-70
2022/03/16 03:59:30;;;;;;;149.55;54.05;;;4.10;99.90;;;;;;4992171;28;20085;-70
2022/03/16 04:01:56;;;;;;;151.57;54.42;;;;;;;;;;4993292;28;20143;-70
2022/03/16 04:04:22;;;;;;;130.50;52.35;;;4.20;99.90;;;;;;4993547;28;20050;-70
2022/03/16 04:06:48;;;;;;;141.48;55.17;;;;;;;;;;4993476;28;20073;-70
2022/03/16 04:09:14;;;;;;;134.32;51.65;;;;;;;;;;4992430;28;20144;-71
2022/03/16 04:11:39;;;;;;;139.27;51.55;;;4.10;99.90;;;;;;4975668;28;20054;-70
2022/03/16 04:14:06;;;;;;;139.43;53.85;;;;;;;;;;5008266;28;20050;-70
2022/03/16 04:16:31;;;;;;;;;;;4.50;99.90;;;;;;4993105;28;20483;-70
2022/03/16 04:18:58;;;;;;;130.40;48.70;;;4.30;99.90;;;;;;4993168;28;19980;-70
2022/03/16 04:21:24;;;;;;;137.60;51.70;;;4.20;99.90;;;;;;4992067;28;20149;-70
2022/03/16 04:23:49;;;;;;;111.78;47.25;;;4.00;99.90;;;;;;4993168;28;20046;-70
2022/03/16 04:26:16;;;;;;;121.40;48.20;;;4.00;99.90;;;;;;4993151;28;20101;-70
2022/03/16 04:28:42;;;;;;;119.55;49.30;;;;;;;;;;4991588;28;20104;-70
2022/03/16 04:31:08;;;;;;;109.85;46.67;;;3.80;99.90;;;;;;4992775;28;20450;-70
2022/03/16 04:33:37;;;;;;;111.43;48.40;;;;;;;;;;4993118;28;20093;-70
2022/03/16 04:36:03;;;;;;;110.65;45.13;;;4.10;99.90;;;;;;4993072;28;20093;-70
2022/03/16 04:38:29;;;;;;;101.47;44.20;;;3.80;99.90;;;;;;5008403;28;20105;-70
2022/03/16 04:40:54;;;;;;;100.43;43.67;;;4.20;99.90;;;;;;4993002;28;20042;-70
2022/03/16 04:43:20;;;;;;;106.85;44.92;;;3.90;99.90;;;;;;4992918;28;20398;-70
2022/03/16 04:45:46;;;;;;;114.75;47.00;;;;;;;;;;4992746;28;20046;-70
2022/03/16 04:48:12;;;;;;;117.50;47.72;;;4.00;99.90;;;;;;5007909;28;20443;-70
2022/03/16 04:50:38;;;;;;;117.65;49.47;;;;;;;;;;4992892;28;20101;-70
2022/03/16 04:53:04;;;;;;;114.45;46.63;;;;;;;;;;4992948;28;20092;-70
2022/03/16 04:55:30;;;;;;;127.47;47.13;;;4.00;99.90;;;;;;4992807;28;20054;-70
2022/03/16 04:57:57;;;;;;;125.53;48.70;;;;;;;;;;4992758;28;20046;-71
2022/03/16 05:00:24;;;;;;;136.50;49.90;;;4.30;99.90;;;;;;4991491;28;20050;-70
2022/03/16 05:02:50;;;;;;;134.13;49.75;;;3.90;99.90;;;;;;4993018;28;20506;-70
2022/03/16 05:05:15;;;;;;;129.30;48.65;;;4.20;99.90;;;;;;4992639;28;20137;-70
2022/03/16 05:07:43;;;;;;;116.93;47.97;;;4.00;99.90;;;;;;4992706;28;20050;-70
2022/03/16 05:10:11;;;;;;;121.95;46.33;;;;;;;;;;4992700;28;20046;-70
2022/03/16 05:12:41;;;;;;;129.13;49.33;;;3.70;99.90;;;;;;4992583;28;20054;-71
2022/03/16 05:15:10;;;;;;;120.95;47.70;;;4.00;99.90;;;;;;4992502;28;20050;-70
2022/03/16 05:17:36;;;;;;;125.20;48.67;;;4.40;99.90;;;;;;4991612;28;20046;-71
2022/03/16 05:20:03;;;;;;;126.88;50.03;;;4.00;99.90;;;;;;4992746;28;20089;-71
2022/03/16 05:22:28;;;;;;;;;;;4.00;99.90;;;;;;4993033;28;20042;-70
2022/03/16 05:24:54;;;;;;;116.45;48.53;;;;;;;;;;4992623;28;19926;-71
2022/03/16 05:27:20;;;;;;;121.78;48.40;;;4.20;99.90;;;;;;4992286;28;20376;-71
2022/03/16 05:29:47;;;;;;;109.45;47.17;;;4.10;99.90;;;;;;4993144;28;20042;-71
2022/03/16 05:32:13;;;;;;;120.20;48.03;;;;;;;;;;4996219;28;20054;-71
2022/03/16 05:34:39;;;;;;;144.50;50.50;;;4.30;99.90;;;;;;4995222;28;20058;-71
2022/03/16 05:37:05;;;;;;;126.35;48.28;;;4.50;99.90;;;;;;4995168;28;20050;-71
2022/03/16 05:39:31;;;;;;;121.88;48.33;;;4.20;99.90;;;;;;4996131;28;20054;-71
2022/03/16 05:41:57;;;;;;;126.60;47.80;;;;;;;;;;4994868;28;20046;-71
2022/03/16 05:44:23;;;;;;;126.45;48.50;;;;;;;;;;4995901;28;20115;-71
2022/03/16 05:46:50;;;;;;;125.00;48.28;;;;;;;;;;4994861;28;20145;-71
2022/03/16 05:49:16;;;;;;;128.60;48.90;;;;;;;;;;4995859;28;20050;-71
2022/03/16 05:51:42;;;;;;;123.50;48.25;;;4.20;99.90;;;;;;4995853;28;20043;-71
2022/03/16 05:54:08;;;;;;;131.27;50.73;;;;;;;;;;4995839;28;20050;-71
2022/03/16 05:56:35;;;;;;;124.57;47.35;;;;;;;;;;4994650;28;20289;-71
2022/03/16 05:59:00;;;;;;;129.95;48.95;;;4.30;99.90;;;;;;4994797;28;20054;-71
2022/03/16 06:01:26;;;;;;;122.85;49.50;;;4.20;99.90;;;;;;4995581;28;20053;-71
2022/03/16 06:03:53;;;;;;;132.48;49.75;;;4.30;99.90;;;;;;4996012;28;20057;-71
2022/03/16 06:06:20;;;;;;;108.13;48.20;;;4.30;99.90;;;;;;4995449;28;20436;-71
2022/03/16 06:08:46;;;;;;;114.97;47.22;;;4.30;99.90;;;;;;4994474;28;20137;-71
2022/03/16 06:11:11;;;;;;;122.38;50.28;;;4.40;99.90;;;;;;4995375;28;20129;-71
2022/03/16 06:13:37;;;;;;;121.80;48.38;;;4.30;99.90;;;;;;4994221;28;20105;-71
2022/03/16 06:16:03;;;;;;;124.90;46.92;;;4.30;99.90;;;;;;4995629;28;20082;-71
2022/03/16 06:18:29;;;;;;;123.15;47.20;;;4.40;99.90;;;;;;4995231;28;20092;-71
2022/03/16 06:20:54;;;;;;;126.72;50.40;;;4.40;99.90;;;;;;4995428;28;20046;-72
2022/03/16 06:23:20;;;;;;;118.13;50.67;;;4.40;99.90;;;;;;4993935;28;20064;-71
2022/03/16 06:25:45;;;;;;;127.32;52.47;;;4.50;99.90;;;;;;4995187;28;20097;-71
2022/03/16 06:28:11;;;;;;;121.80;50.67;;;4.60;99.90;;;;;;4995090;28;20053;-71
2022/03/16 06:30:37;;;;;;;122.78;52.53;;;4.50;99.90;;;;;;4993984;28;20073;-71
2022/03/16 06:33:04;;;;;;;135.55;55.55;;;4.50;99.90;;;;;;4993925;28;20101;-71
2022/03/16 06:35:30;;;;;;;;;;;4.80;99.90;;;;;;4995525;28;20054;-72
2022/03/16 06:37:55;;;;;;;129.60;51.20;;;4.50;99.90;;;;;;4993830;28;20368;-72
2022/03/16 06:40:21;;;;;;;126.68;51.20;;;4.80;99.90;;;;;;4994402;28;20129;-70
2022/03/16 06:42:49;;;;;;;130.95;51.63;;;4.90;99.90;;;;;;4993929;28;20054;-71
2022/03/16 06:45:16;;;;;;;120.20;51.28;;;4.70;99.90;;;;;;4994918;28;20069;-71
2022/03/16 06:47:42;;;;;;;129.45;54.28;;;4.90;99.90;;;;;;4993976;28;20129;-71
2022/03/16 06:50:08;;;;;;;120.00;51.28;;;4.90;99.90;;;;;;4994740;28;20046;-71
2022/03/16 06:52:33;;;;;;;124.85;51.70;;;4.90;99.90;;;;;;4994628;28;20038;-70
2022/03/16 06:54:59;;;;;;;122.80;50.92;;;;;;;;;;4994601;28;20099;-72
2022/03/16 06:57:25;;;;;;;119.65;51.78;;;5.00;99.90;;;;;;4993711;28;20073;-71
2022/03/16 06:59:51;;;;;;;121.00;47.83;;;4.90;99.90;;;;;;4993850;28;20490;-72
2022/03/16 07:02:17;;;;;;;123.80;48.88;;;;;;;;;;4994588;28;20050;-71
2022/03/16 07:04:43;;;;;;;126.20;49.85;;;;;;;;;;4993516;28;20054;-71
2022/03/16 07:07:09;;;;;;;123.88;50.70;;;5.10;99.90;;;;;;4993445;28;20058;-72
2022/03/16 07:09:34;;;;;;;122.43;49.00;;;5.00;99.90;;;;;;4993190;28;20050;-70
2022/03/16 07:12:01;;;;;;;121.45;49.08;;;5.10;99.90;;;;;;4994301;28;20056;-70
2022/03/16 07:14:32;;;;;;;;;;;5.00;99.90;;;;;;4994559;28;20438;-72
2022/03/16 07:17:02;;;;;;;111.45;46.08;;;5.20;99.90;;;;;;4993316;28;20335;-72
2022/03/16 07:19:29;;;;;;;114.10;47.65;;;5.30;99.90;;;;;;4994311;28;20049;-71
2022/03/16 07:21:59;;;;;;;122.60;47.70;;;5.10;99.90;;;;;;5010948;28;20038;-71
2022/03/16 07:24:25;;;;;;;113.63;48.30;;;5.20;99.90;;;;;;5013481;28;20056;-72
2022/03/16 07:26:51;;;;;;;;;;;;;;;;;;5014293;28;20064;-71
2022/03/16 07:29:17;;;;;;;109.55;46.17;;;5.40;99.90;;;;;;4999403;28;19930;-71
2022/03/16 07:31:42;;;;;;;102.65;48.35;;;5.30;99.90;;;;;;5010728;28;20108;-71
2022/03/16 07:34:08;;;;;;;111.95;46.70;;;6.10;99.90;;;;;;5015190;28;20057;-71
2022/03/16 07:36:34;;;;;;;108.07;47.17;;;5.40;99.90;;;;;;5008404;28;20153;-71
2022/03/16 07:38:59;;;;;;;106.18;47.58;;;5.70;99.90;;;;;;5010609;28;20041;-71
2022/03/16 07:41:25;;;;;;;101.60;47.28;;;5.80;99.90;;;;;;5010051;28;20056;-71
2022/03/16 07:43:51;;;;;;;107.82;46.10;;;6.10;99.90;;;;;;5009111;28;20161;-71
2022/03/16 07:46:16;;;;;;;113.97;49.00;;;5.90;99.90;;;;;;5011875;28;20053;-71
2022/03/16 07:48:43;;;;;;;103.18;47.15;;;6.00;99.90;;;;;;5001239;28;20054;-78
2022/03/16 07:51:09;;;;;;;109.88;47.85;;;6.20;99.90;;;;;;5010435;28;20038;-74
2022/03/16 07:53:35;;;;;;;99.60;47.08;;;6.20;99.90;;;;;;5008364;28;20049;-75
2022/03/16 07:56:01;;;;;;;107.53;46.47;;;6.50;99.90;;;;;;5010010;28;20209;-75
2022/03/16 07:58:26;;;;;;;99.40;47.13;;;6.50;99.90;;;;;;5012036;28;20410;-75
2022/03/16 08:00:52;;;;;;;95.78;45.35;;;6.70;99.90;;;;;;5011835;28;20056;-76
2022/03/16 08:03:17;;;;;;;103.00;46.33;;;6.60;99.90;;;;;;5010085;28;20060;-77
2022/03/16 08:05:45;;;;;;;90.97;45.47;;;6.70;99.90;;;;;;5009482;28;20069;-76
2022/03/16 08:08:11;;;;;;;105.18;47.00;;;6.70;99.90;;;;;;5026686;28;20572;-76
2022/03/16 08:10:36;;;;;;;95.75;44.58;;;6.70;99.90;;;;;;5010918;28;20088;-75
2022/03/16 08:13:02;;;;;;;89.32;44.45;;;7.00;99.90;;;;;;5011452;28;20564;-77
2022/03/16 08:15:28;;;;;;;88.20;43.63;;;6.80;99.90;;;;;;5009245;28;20056;-74
2022/03/16 08:17:53;;;;;;;79.13;42.10;;;7.20;99.90;;;;;;5009853;28;20053;-75
2022/03/16 08:20:19;;;;;;;83.13;41.88;;;6.90;99.90;;;;;;5007523;28;20062;-77
2022/03/16 08:22:45;;;;;;;83.85;41.92;;;7.20;99.90;;;;;;5010493;28;20137;-77
2022/03/16 08:25:12;;;;;;;81.25;39.78;;;7.00;99.90;;;;;;5008954;28;20129;-76
2022/03/16 08:27:39;;;;;;;80.43;41.42;;;7.30;99.90;;;;;;5010836;28;20104;-75
2022/03/16 08:30:07;;;;;;;79.82;41.72;;;8.20;99.90;;;;;;5011434;28;20049;-77
2022/03/16 08:32:32;;;;;;;86.63;42.60;;;6.90;99.90;;;;;;5011070;28;20085;-76
2022/03/16 08:34:58;;;;;;;79.13;40.30;;;7.20;99.90;;;;;;5008319;28;20505;-76
2022/03/16 08:37:24;;;;;;;78.55;40.75;;;7.50;99.90;;;;;;5010108;28;20052;-75
2022/03/16 08:39:50;;;;;;;84.78;42.00;;;7.70;99.90;;;;;;5010970;28;20045;-76
2022/03/16 08:42:16;;;;;;;79.90;39.95;;;7.90;99.90;;;;;;5010616;28;20505;-76
2022/03/16 08:44:43;;;;;;;71.30;39.72;;;7.60;99.90;;;;;;5009181;28;20050;-75
2022/03/16 08:47:16;;;;;;;68.90;37.95;;;7.90;99.90;;;;;;5010708;28;20459;-74
2022/03/16 08:49:44;;;;;;;77.82;40.28;;;7.90;99.90;;;;;;5005926;28;20125;-74
2022/03/16 08:52:10;;;;;;;76.10;38.30;;;8.10;99.90;;;;;;5025420;28;20050;-74
2022/03/16 08:54:36;;;;;;;68.43;37.17;;;8.20;99.90;;;;;;5008232;28;20079;-73
2022/03/16 08:57:02;;;;;;;65.13;37.10;;;8.20;99.90;;;;;;5009156;28;20455;-72
2022/03/16 08:59:28;;;;;;;63.95;35.67;;;8.20;99.90;;;;;;5010900;28;20054;-73
2022/03/16 09:01:54;;;;;;;60.38;36.03;;;8.60;99.90;;;;;;5009433;28;20393;-73
2022/03/16 09:04:21;;;;;;;57.03;33.58;;;9.00;99.90;;;;;;5010782;28;20045;-72
2022/03/16 09:06:48;;;;;;;63.65;34.95;;;8.90;99.90;;;;;;5013739;28;20115;-72
2022/03/16 09:09:14;;;;;;;55.55;32.30;;;8.70;99.90;;;;;;5029679;28;20057;-71
2022/03/16 09:11:40;;;;;;;62.78;35.65;;;9.00;99.90;;;;;;5014211;28;20045;-72
2022/03/16 09:14:06;;;;;;;53.63;33.88;;;9.50;99.90;;;;;;5011316;28;20046;-69
2022/03/16 09:16:32;;;;;;;55.40;32.75;;;10.20;99.90;;;;;;5013474;28;20073;-69
2022/03/16 09:18:57;;;;;;;;;;;9.70;99.90;;;;;;5014079;28;20513;-72
2022/03/16 09:21:25;;;;;;;52.28;31.85;;;9.30;99.90;;;;;;5014587;28;19943;-72
2022/03/16 09:23:53;;;;;;;50.17;31.67;;;9.50;99.90;;;;;;5011950;28;20049;-73
2022/03/16 09:26:21;;;;;;;50.60;30.20;;;10.50;99.90;;;;;;5012980;28;20560;-72
2022/03/16 09:28:47;;;;;;;44.92;28.55;;;9.70;99.90;;;;;;5012516;28;20520;-72
2022/03/16 09:31:12;;;;;;;49.65;28.77;;;9.90;99.90;;;;;;5015691;28;20045;-74
2022/03/16 09:33:40;;;;;;;45.92;28.92;;;10.60;99.90;;;;;;5015821;28;20164;-72
2022/03/16 09:36:08;;;;;;;43.97;29.25;;;10.00;99.90;;;;;;5015809;28;20041;-72
2022/03/16 09:38:37;;;;;;;51.33;29.02;;;11.00;99.90;;;;;;5014723;28;20379;-72
2022/03/16 09:41:04;;;;;;;47.50;30.08;;;10.20;99.90;;;;;;5014590;28;20116;-72
2022/03/16 09:43:37;;;;;;;43.97;28.20;;;10.10;99.90;;;;;;5015489;28;20045;-72
2022/03/16 09:46:11;;;;;;;47.40;28.73;;;10.00;99.90;;;;;;5015382;28;20093;-73
2022/03/16 09:48:39;;;;;;;42.50;26.35;;;10.10;99.90;;;;;;5015570;28;20128;-72
2022/03/16 09:51:06;;;;;;;49.10;28.80;;;10.40;99.90;;;;;;5015505;28;20046;-72
2022/03/16 09:53:32;;;;;;;49.38;28.98;;;10.50;99.90;;;;;;5007783;28;20042;-68
2022/03/16 09:55:57;;;;;;;47.75;28.60;;;11.80;99.90;;;;;;5015059;28;20413;-68
2022/03/16 09:58:23;;;;;;;47.08;29.10;;;11.70;99.90;;;;;;5014922;28;20049;-69
2022/03/16 10:00:52;;;;;;;49.33;28.67;;;10.80;99.90;;;;;;5014750;28;20041;-69
2022/03/16 10:03:21;;;;;;;47.38;28.25;;;11.00;99.90;;;;;;4993221;28;20045;-72
2022/03/16 10:05:47;;;;;;;48.08;28.83;;;11.10;99.90;;;;;;5005287;28;20140;-71
2022/03/16 10:08:14;;;;;;;49.03;27.60;;;11.10;99.90;;;;;;5012737;28;20142;-71
2022/03/16 10:13:25;;;;;;;45.72;26.77;;;11.60;99.90;;;;;;5013797;28;20141;-70
2022/03/16 10:15:52;;;;;;;;;;;12.60;99.90;;;;;;5013639;28;20052;-70
2022/03/16 10:18:21;;;;;;;40.20;23.95;;;11.60;99.90;;;;;;5011955;28;19933;-71
2022/03/16 10:20:47;;;;;;;37.25;22.60;;;11.90;99.90;;;;;;5013957;28;20050;-71
2022/03/16 10:23:18;;;;;;;32.88;21.40;;;11.70;99.90;;;;;;5012026;28;20435;-71
2022/03/16 10:25:45;;;;;;;37.10;22.73;;;11.90;99.90;;;;;;5012983;28;20104;-70
2022/03/16 10:28:17;;;;;;;35.28;21.83;;;12.10;99.90;;;;;;5011834;28;20054;-70
2022/03/16 10:30:55;;;;;;;34.35;22.08;;;12.20;99.90;;;;;;5012817;28;20125;-71
2022/03/16 10:33:26;;;;;;;32.92;21.40;;;12.00;99.90;;;;;;4997430;28;20117;-70
2022/03/16 10:35:58;;;;;;;34.63;21.42;;;12.20;99.90;;;;;;5010791;28;20087;-70
2022/03/16 10:38:25;;;;;;;32.25;20.52;;;12.40;99.90;;;;;;5012666;28;20050;-71
2022/03/16 10:40:54;;;;;;;31.52;18.75;;;12.30;99.90;;;;;;5013272;28;20073;-71
2022/03/16 10:49:04;;;;;;;26.23;16.45;;;13.30;99.90;;;;;;5013519;28;20073;-70
2022/03/16 10:51:30;;;;;;;25.25;15.05;;;12.70;99.90;;;;;;5014534;28;20053;-70
2022/03/16 10:53:58;;;;;;;23.65;14.52;;;12.70;99.90;;;;;;5014377;28;20050;-70
2022/03/16 10:56:26;;;;;;;21.38;13.77;;;12.60;99.90;;;;;;5014292;28;20417;-71
2022/03/16 10:58:53;;;;;;;20.67;14.13;;;12.30;99.90;;;;;;4997272;28;20425;-70
2022/03/16 11:01:20;;;;;;;22.67;14.40;;;12.60;99.90;;;;;;5013048;28;20068;-72
2022/03/16 11:03:49;;;;;;;22.67;12.70;;;12.70;99.90;;;;;;5014310;28;20143;-71
2022/03/16 11:06:16;;;;;;;21.13;13.85;;;12.80;99.90;;;;;;5013257;28;20153;-70
2022/03/16 11:08:42;;;;;;;20.70;12.57;;;12.70;99.90;;;;;;5014169;28;20406;-71
2022/03/16 11:13:54;;;;;;;20.70;13.07;;;13.00;99.90;;;;;;5013846;28;20061;-71
2022/03/16 11:16:21;;;;;;;18.55;13.23;;;13.00;99.90;;;;;;5013988;28;20387;-70
2022/03/16 11:18:51;;;;;;;19.95;12.60;;;12.90;99.90;;;;;;5012827;28;20131;-70
2022/03/16 11:21:23;;;;;;;19.70;12.85;;;13.10;99.90;;;;;;5012853;28;20544;-72
2022/03/16 11:27:02;;;;;;;22.00;13.82;;;13.00;99.90;;;;;;5012607;28;20065;-71
2022/03/16 11:29:48;;;;;;;21.90;14.00;;;13.10;99.90;;;;;;5013716;28;20068;-70
2022/03/16 11:32:17;;;;;;;23.90;14.77;;;12.60;99.90;;;;;;5013478;28;20046;-73
2022/03/16 11:34:55;;;;;;;20.42;13.77;;;12.90;99.90;;;;;;5029039;28;20112;-70
2022/03/16 11:37:33;;;;;;;20.95;14.23;;;13.20;99.90;;;;;;5013720;28;20046;-70
2022/03/16 11:40:09;;;;;;;22.75;14.20;;;13.10;99.90;;;;;;5012554;28;20057;-70
2022/03/16 11:42:36;;;;;;;18.08;12.05;;;13.20;99.90;;;;;;5013528;28;20125;-70
2022/03/16 11:45:30;;;;;;;18.58;12.07;;;13.40;99.90;;;;;;5013298;28;20490;-70
2022/03/16 11:47:56;;;;;;;17.50;12.38;;;13.40;99.90;;;;;;5012435;28;20046;-70
2022/03/16 11:50:21;;;;;;;21.83;12.90;;;13.70;99.90;;;;;;5013460;28;20049;-73
2022/03/16 11:53:17;;;;;;;16.52;12.52;;;13.40;99.90;;;;;;5013182;28;20042;-70
2022/03/16 11:55:45;;;;;;;18.83;13.25;;;13.80;99.90;;;;;;5008503;28;20061;-70
2022/03/16 11:58:28;;;;;;;22.98;13.60;;;13.40;99.90;;;;;;5010224;28;20053;-72
2022/03/16 12:01:31;;;;;;;21.00;13.57;;;13.50;99.90;;;;;;4993573;28;20144;-70
2022/03/16 12:04:12;;;;;;;20.08;13.57;;;14.00;99.90;;;;;;4992071;28;20054;-70
2022/03/16 12:07:01;;;;;;;19.92;13.02;;;13.80;99.90;;;;;;4993303;28;20061;-71
2022/03/16 12:09:33;;;;;;;20.02;13.43;;;13.70;99.90;;;;;;4992382;28;20061;-73
2022/03/16 12:14:59;;;;;;;21.73;14.32;;;13.80;99.90;;;;;;5003393;28;20079;-70
2022/03/16 12:17:25;;;;;;;19.63;12.80;;;14.00;99.90;;;;;;5012773;28;20057;-73
2022/03/16 12:20:21;;;;;;;18.95;12.43;;;14.20;99.90;;;;;;5011386;28;20455;-72
2022/03/16 12:22:52;;;;;;;22.38;12.15;;;14.10;99.90;;;;;;4993217;28;20053;-74
2022/03/16 12:25:26;;;;;;;18.50;12.02;;;13.80;99.90;;;;;;4992252;28;20135;-72
2022/03/16 12:30:43;;;;;;;17.98;12.30;;;14.00;99.90;;;;;;4993122;28;20120;-70
2022/03/16 12:33:16;;;;;;;19.65;12.55;;;14.10;99.90;;;;;;4993042;28;20154;-69
2022/03/16 12:35:42;;;;;;;16.63;11.27;;;14.20;99.90;;;;;;4991914;28;20129;-70
2022/03/16 12:38:09;;;;;;;;;;;14.10;99.90;;;;;;4993149;28;20049;-69
2022/03/16 12:43:27;;;;;;;19.73;12.95;;;14.20;99.90;;;;;;4992909;28;20053;-69
2022/03/16 12:46:22;;;;;;;20.10;13.18;;;14.50;99.90;;;;;;4992854;28;20113;-69
2022/03/16 12:48:51;;;;;;;17.58;12.20;;;14.60;99.90;;;;;;4958956;28;20066;-69
2022/03/16 12:51:44;;;;;;;21.20;13.10;;;14.50;99.90;;;;;;4992873;28;20047;-69
2022/03/16 12:54:12;;;;;;;17.35;12.30;;;14.50;99.90;;;;;;4992778;28;20054;-69
2022/03/16 12:56:43;;;;;;;19.30;12.82;;;14.40;99.90;;;;;;4991938;28;20046;-69
2022/03/16 12:59:10;;;;;;;17.48;12.50;;;14.70;99.90;;;;;;4991377;28;20056;-69
2022/03/16 13:01:37;;;;;;;18.67;12.95;;;14.70;99.90;;;;;;4992666;28;20050;-70
2022/03/16 13:04:08;;;;;;;17.75;11.88;;;15.40;99.90;;;;;;4992758;28;20069;-69
2022/03/16 13:06:34;;;;;;;19.05;11.60;;;15.10;99.90;;;;;;4991711;28;20104;-70